Gleisdorf, Austria
Current Conditions -  °F | °C
As of 6:50 PM on Thursday 27 Nov 2014 (Local Time) from LOWG Reporting Station
Drizzle Drizzle  
Wind Chill: 32°   Ceiling: 700
Heat Index: 36°   Visibility: 3mi
Dew Point: 34°   Wind: 5mph
Humidity: 93%   Direction: 110°ESE
Pressure: 30"   Gusts: NA
Location:  47.11°N, 15.71°E
Report Text: LOWG 271650Z 11004KT 5000 -DZ BR FEW004 OVC007 02/01 Q1016 TEMPO 2500 SCT003 BKN006
Loading
Personal Weather Stations






























Interactive Weather Map New forecast layout! Learn more

10-Day Weather Forecast

Advertisements
Track Severe Weather on mobile